sensor_id;sensor_type;location;lat;lon;timestamp;temperature;humidity
63202;DHT22;49296;48.188;11.566;2023-09-19T00:01:54;18.26;72.47
63202;DHT22;49296;48.188;11.566;2023-09-19T00:04:23;18.36;71.75
63202;DHT22;49296;48.188;11.566;2023-09-19T00:06:54;18.39;71.60
63202;DHT22;49296;48.188;11.566;2023-09-19T00:09:21;18.44;71.64
63202;DHT22;49296;48.188;11.566;2023-09-19T00:11:51;18.54;71.21
63202;DHT22;49296;48.188;11.566;2023-09-19T00:14:18;18.54;70.95
63202;DHT22;49296;48.188;11.566;2023-09-19T00:16:45;18.53;70.85
63202;DHT22;49296;48.188;11.566;2023-09-19T00:19:12;18.50;71.07
63202;DHT22;49296;48.188;11.566;2023-09-19T00:21:40;18.60;70.72
63202;DHT22;49296;48.188;11.566;2023-09-19T00:24:08;18.57;70.68
63202;DHT22;49296;48.188;11.566;2023-09-19T00:26:35;18.59;70.47
63202;DHT22;49296;48.188;11.566;2023-09-19T00:29:02;18.50;70.89
63202;DHT22;49296;48.188;11.566;2023-09-19T00:31:29;18.56;70.73
63202;DHT22;49296;48.188;11.566;2023-09-19T00:33:56;18.61;70.68
63202;DHT22;49296;48.188;11.566;2023-09-19T00:36:25;18.59;70.46
63202;DHT22;49296;48.188;11.566;2023-09-19T00:38:53;18.52;70.95
63202;DHT22;49296;48.188;11.566;2023-09-19T00:41:19;18.47;70.93
63202;DHT22;49296;48.188;11.566;2023-09-19T00:43:47;18.52;71.19
63202;DHT22;49296;48.188;11.566;2023-09-19T00:46:16;18.59;70.99
63202;DHT22;49296;48.188;11.566;2023-09-19T00:48:43;18.50;71.19
63202;DHT22;49296;48.188;11.566;2023-09-19T00:51:10;18.56;71.20
63202;DHT22;49296;48.188;11.566;2023-09-19T00:53:39;18.49;71.55
63202;DHT22;49296;48.188;11.566;2023-09-19T00:56:08;18.47;71.74
63202;DHT22;49296;48.188;11.566;2023-09-19T01:01:58;18.37;72.33
63202;DHT22;49296;48.188;11.566;2023-09-19T01:04:25;18.29;72.89
63202;DHT22;49296;48.188;11.566;2023-09-19T01:06:53;18.24;72.97
63202;DHT22;49296;48.188;11.566;2023-09-19T01:09:20;18.29;72.87
63202;DHT22;49296;48.188;11.566;2023-09-19T01:11:50;18.29;73.08
63202;DHT22;49296;48.188;11.566;2023-09-19T01:14:25;18.46;72.88
63202;DHT22;49296;48.188;11.566;2023-09-19T01:17:01;18.36;72.97
63202;DHT22;49296;48.188;11.566;2023-09-19T01:19:59;18.19;73.50
63202;DHT22;49296;48.188;11.566;2023-09-19T01:22:37;18.21;73.70
63202;DHT22;49296;48.188;11.566;2023-09-19T01:25:39;18.25;73.56
63202;DHT22;49296;48.188;11.566;2023-09-19T01:28:32;18.22;73.80
63202;DHT22;49296;48.188;11.566;2023-09-19T01:31:04;18.30;73.44
63202;DHT22;49296;48.188;11.566;2023-09-19T01:33:58;18.42;73.29
63202;DHT22;49296;48.188;11.566;2023-09-19T01:36:30;18.29;73.56
63202;DHT22;49296;48.188;11.566;2023-09-19T01:39:00;18.28;73.64
63202;DHT22;49296;48.188;11.566;2023-09-19T01:41:39;18.05;74.07
63202;DHT22;49296;48.188;11.566;2023-09-19T01:44:12;18.06;73.98
63202;DHT22;49296;48.188;11.566;2023-09-19T01:46:45;17.98;74.36
63202;DHT22;49296;48.188;11.566;2023-09-19T01:49:22;18.04;74.25
63202;DHT22;49296;48.188;11.566;2023-09-19T01:51:56;18.11;74.21
63202;DHT22;49296;48.188;11.566;2023-09-19T01:54:30;18.02;74.27
63202;DHT22;49296;48.188;11.566;2023-09-19T01:57:02;18.08;74.28
63202;DHT22;49296;48.188;11.566;2023-09-19T01:59:36;18.19;74.01
63202;DHT22;49296;48.188;11.566;2023-09-19T02:02:07;17.98;74.40
63202;DHT22;49296;48.188;11.566;2023-09-19T02:04:35;18.09;73.91
63202;DHT22;49296;48.188;11.566;2023-09-19T02:07:03;18.05;74.13
63202;DHT22;49296;48.188;11.566;2023-09-19T02:09:31;18.02;73.89
63202;DHT22;49296;48.188;11.566;2023-09-19T02:11:58;17.95;74.06
63202;DHT22;49296;48.188;11.566;2023-09-19T02:14:25;17.91;74.08
63202;DHT22;49296;48.188;11.566;2023-09-19T02:16:52;17.85;74.31
63202;DHT22;49296;48.188;11.566;2023-09-19T02:19:21;17.84;74.13
63202;DHT22;49296;48.188;11.566;2023-09-19T02:21:48;17.92;74.14
63202;DHT22;49296;48.188;11.566;2023-09-19T02:24:15;17.92;73.98
63202;DHT22;49296;48.188;11.566;2023-09-19T02:26:42;17.77;74.31
63202;DHT22;49296;48.188;11.566;2023-09-19T02:29:09;17.81;74.15
63202;DHT22;49296;48.188;11.566;2023-09-19T02:31:38;17.81;74.16
63202;DHT22;49296;48.188;11.566;2023-09-19T02:34:07;17.84;74.23
63202;DHT22;49296;48.188;11.566;2023-09-19T02:36:36;17.84;74.16
63202;DHT22;49296;48.188;11.566;2023-09-19T02:39:03;17.81;74.03
63202;DHT22;49296;48.188;11.566;2023-09-19T02:41:31;17.73;74.26
63202;DHT22;49296;48.188;11.566;2023-09-19T02:43:58;17.75;74.37
63202;DHT22;49296;48.188;11.566;2023-09-19T02:46:27;17.80;74.31
63202;DHT22;49296;48.188;11.566;2023-09-19T02:48:53;17.92;74.15
63202;DHT22;49296;48.188;11.566;2023-09-19T02:51:21;17.91;73.98
63202;DHT22;49296;48.188;11.566;2023-09-19T02:53:49;17.81;74.18
63202;DHT22;49296;48.188;11.566;2023-09-19T02:56:17;17.78;74.25
63202;DHT22;49296;48.188;11.566;2023-09-19T02:58:44;17.81;74.27
63202;DHT22;49296;48.188;11.566;2023-09-19T03:01:11;17.85;74.38
63202;DHT22;49296;48.188;11.566;2023-09-19T03:03:38;17.75;74.36
63202;DHT22;49296;48.188;11.566;2023-09-19T03:06:06;17.83;74.22
63202;DHT22;49296;48.188;11.566;2023-09-19T03:08:34;17.77;74.37
63202;DHT22;49296;48.188;11.566;2023-09-19T03:11:04;17.80;74.24
63202;DHT22;49296;48.188;11.566;2023-09-19T03:13:33;17.69;74.41
63202;DHT22;49296;48.188;11.566;2023-09-19T03:16:01;17.71;74.27
63202;DHT22;49296;48.188;11.566;2023-09-19T03:18:31;17.62;74.52
63202;DHT22;49296;48.188;11.566;2023-09-19T03:20:57;17.71;74.34
63202;DHT22;49296;48.188;11.566;2023-09-19T03:23:25;17.78;74.21
63202;DHT22;49296;48.188;11.566;2023-09-19T03:25:52;17.66;74.38
63202;DHT22;49296;48.188;11.566;2023-09-19T03:28:21;17.66;74.31
63202;DHT22;49296;48.188;11.566;2023-09-19T03:30:58;17.69;74.52
63202;DHT22;49296;48.188;11.566;2023-09-19T03:33:25;17.75;74.29
63202;DHT22;49296;48.188;11.566;2023-09-19T03:35:52;17.73;74.30
63202;DHT22;49296;48.188;11.566;2023-09-19T03:38:19;17.57;74.64
63202;DHT22;49296;48.188;11.566;2023-09-19T03:40:47;17.60;74.61
63202;DHT22;49296;48.188;11.566;2023-09-19T03:43:14;17.74;74.32
63202;DHT22;49296;48.188;11.566;2023-09-19T03:45:42;17.66;74.39
63202;DHT22;49296;48.188;11.566;2023-09-19T03:48:08;17.54;74.58
63202;DHT22;49296;48.188;11.566;2023-09-19T03:50:35;17.63;74.56
63202;DHT22;49296;48.188;11.566;2023-09-19T03:53:03;17.54;74.72
63202;DHT22;49296;48.188;11.566;2023-09-19T03:55:29;17.63;74.64
63202;DHT22;49296;48.188;11.566;2023-09-19T03:57:56;17.78;74.47
63202;DHT22;49296;48.188;11.566;2023-09-19T04:00:23;17.66;74.63
63202;DHT22;49296;48.188;11.566;2023-09-19T04:02:53;17.81;74.39
63202;DHT22;49296;48.188;11.566;2023-09-19T04:05:21;17.71;74.60
63202;DHT22;49296;48.188;11.566;2023-09-19T04:07:48;17.66;74.74
63202;DHT22;49296;48.188;11.566;2023-09-19T04:10:15;17.56;74.91
63202;DHT22;49296;48.188;11.566;2023-09-19T04:12:50;17.57;75.01
63202;DHT22;49296;48.188;11.566;2023-09-19T04:15:17;17.49;75.10
63202;DHT22;49296;48.188;11.566;2023-09-19T04:17:44;17.49;75.09
63202;DHT22;49296;48.188;11.566;2023-09-19T04:20:12;17.50;75.19
63202;DHT22;49296;48.188;11.566;2023-09-19T04:22:39;17.57;74.86
63202;DHT22;49296;48.188;11.566;2023-09-19T04:25:06;17.56;74.96
63202;DHT22;49296;48.188;11.566;2023-09-19T04:27:33;17.51;75.14
63202;DHT22;49296;48.188;11.566;2023-09-19T04:30:00;17.62;74.86
63202;DHT22;49296;48.188;11.566;2023-09-19T04:32:35;17.62;74.94
63202;DHT22;49296;48.188;11.566;2023-09-19T04:35:01;17.53;74.88
63202;DHT22;49296;48.188;11.566;2023-09-19T04:37:32;17.59;74.69
63202;DHT22;49296;48.188;11.566;2023-09-19T04:40:00;17.49;75.05
63202;DHT22;49296;48.188;11.566;2023-09-19T04:42:30;17.43;75.26
63202;DHT22;49296;48.188;11.566;2023-09-19T04:44:56;17.40;75.29
63202;DHT22;49296;48.188;11.566;2023-09-19T04:47:25;17.42;75.28
63202;DHT22;49296;48.188;11.566;2023-09-19T04:49:51;17.40;75.18
63202;DHT22;49296;48.188;11.566;2023-09-19T04:52:18;17.47;75.06
63202;DHT22;49296;48.188;11.566;2023-09-19T04:54:47;17.42;75.17
63202;DHT22;49296;48.188;11.566;2023-09-19T04:57:13;17.50;75.00
63202;DHT22;49296;48.188;11.566;2023-09-19T04:59:41;17.50;74.95
63202;DHT22;49296;48.188;11.566;2023-09-19T05:02:08;17.42;74.94
63202;DHT22;49296;48.188;11.566;2023-09-19T05:04:34;17.49;75.05
63202;DHT22;49296;48.188;11.566;2023-09-19T05:07:01;17.45;75.04
63202;DHT22;49296;48.188;11.566;2023-09-19T05:09:29;17.50;75.08
63202;DHT22;49296;48.188;11.566;2023-09-19T05:11:57;17.53;75.07
63202;DHT22;49296;48.188;11.566;2023-09-19T05:14:24;17.47;75.04
63202;DHT22;49296;48.188;11.566;2023-09-19T05:16:50;17.42;75.32
63202;DHT22;49296;48.188;11.566;2023-09-19T05:19:17;17.47;75.14
63202;DHT22;49296;48.188;11.566;2023-09-19T05:21:43;17.40;75.20
63202;DHT22;49296;48.188;11.566;2023-09-19T05:24:11;17.50;74.93
63202;DHT22;49296;48.188;11.566;2023-09-19T05:26:40;17.53;74.97
63202;DHT22;49296;48.188;11.566;2023-09-19T05:29:08;17.49;75.19
63202;DHT22;49296;48.188;11.566;2023-09-19T05:31:34;17.47;75.17
63202;DHT22;49296;48.188;11.566;2023-09-19T05:34:06;17.51;75.12
63202;DHT22;49296;48.188;11.566;2023-09-19T05:36:33;17.46;75.05
63202;DHT22;49296;48.188;11.566;2023-09-19T05:38:59;17.43;75.03
63202;DHT22;49296;48.188;11.566;2023-09-19T05:41:27;17.43;75.16
63202;DHT22;49296;48.188;11.566;2023-09-19T05:43:53;17.45;74.92
63202;DHT22;49296;48.188;11.566;2023-09-19T05:46:21;17.40;75.19
63202;DHT22;49296;48.188;11.566;2023-09-19T05:48:48;17.42;75.13
63202;DHT22;49296;48.188;11.566;2023-09-19T05:51:15;17.45;74.90
63202;DHT22;49296;48.188;11.566;2023-09-19T05:53:43;17.39;75.03
63202;DHT22;49296;48.188;11.566;2023-09-19T05:56:09;17.38;75.28
63202;DHT22;49296;48.188;11.566;2023-09-19T05:58:36;17.39;75.23
63202;DHT22;49296;48.188;11.566;2023-09-19T06:01:03;17.43;74.89
63202;DHT22;49296;48.188;11.566;2023-09-19T06:03:34;17.54;74.74
63202;DHT22;49296;48.188;11.566;2023-09-19T06:06:01;17.53;74.71
63202;DHT22;49296;48.188;11.566;2023-09-19T06:08:27;17.54;74.56
63202;DHT22;49296;48.188;11.566;2023-09-19T06:10:56;17.42;75.04
63202;DHT22;49296;48.188;11.566;2023-09-19T06:13:23;17.46;74.96
63202;DHT22;49296;48.188;11.566;2023-09-19T06:15:52;17.49;74.81
63202;DHT22;49296;48.188;11.566;2023-09-19T06:18:19;17.57;74.62
63202;DHT22;49296;48.188;11.566;2023-09-19T06:20:48;17.57;74.88
63202;DHT22;49296;48.188;11.566;2023-09-19T06:23:16;17.51;74.79
63202;DHT22;49296;48.188;11.566;2023-09-19T06:25:43;17.60;74.78
63202;DHT22;49296;48.188;11.566;2023-09-19T06:28:10;17.56;74.65
63202;DHT22;49296;48.188;11.566;2023-09-19T06:30:38;17.67;74.40
63202;DHT22;49296;48.188;11.566;2023-09-19T06:33:06;17.59;74.45
63202;DHT22;49296;48.188;11.566;2023-09-19T06:35:34;17.59;74.41
63202;DHT22;49296;48.188;11.566;2023-09-19T06:38:04;17.59;74.37
63202;DHT22;49296;48.188;11.566;2023-09-19T06:40:31;17.53;74.50
63202;DHT22;49296;48.188;11.566;2023-09-19T06:42:58;17.54;74.57
63202;DHT22;49296;48.188;11.566;2023-09-19T06:45:27;17.59;74.63
63202;DHT22;49296;48.188;11.566;2023-09-19T06:47:54;17.69;74.46
63202;DHT22;49296;48.188;11.566;2023-09-19T06:50:23;17.70;74.41
63202;DHT22;49296;48.188;11.566;2023-09-19T06:52:51;17.71;74.42
63202;DHT22;49296;48.188;11.566;2023-09-19T06:55:21;17.92;74.28
63202;DHT22;49296;48.188;11.566;2023-09-19T06:57:50;18.01;74.07
63202;DHT22;49296;48.188;11.566;2023-09-19T07:00:19;18.06;73.53
63202;DHT22;49296;48.188;11.566;2023-09-19T07:02:55;18.13;73.79
63202;DHT22;49296;48.188;11.566;2023-09-19T07:05:21;18.24;73.54
63202;DHT22;49296;48.188;11.566;2023-09-19T07:07:48;18.09;73.71
63202;DHT22;49296;48.188;11.566;2023-09-19T07:10:15;18.09;73.62
63202;DHT22;49296;48.188;11.566;2023-09-19T07:12:44;18.12;73.78
63202;DHT22;49296;48.188;11.566;2023-09-19T07:15:11;18.15;73.68
63202;DHT22;49296;48.188;11.566;2023-09-19T07:17:38;18.19;73.78
63202;DHT22;49296;48.188;11.566;2023-09-19T07:20:06;18.21;73.67
63202;DHT22;49296;48.188;11.566;2023-09-19T07:22:33;18.26;73.97
63202;DHT22;49296;48.188;11.566;2023-09-19T07:25:00;18.18;73.73
63202;DHT22;49296;48.188;11.566;2023-09-19T07:27:27;18.25;73.53
63202;DHT22;49296;48.188;11.566;2023-09-19T07:29:55;18.22;73.35
63202;DHT22;49296;48.188;11.566;2023-09-19T07:32:22;18.19;73.78
63202;DHT22;49296;48.188;11.566;2023-09-19T07:34:49;18.30;73.40
63202;DHT22;49296;48.188;11.566;2023-09-19T07:37:16;18.30;73.59
63202;DHT22;49296;48.188;11.566;2023-09-19T07:39:42;18.37;73.62
63202;DHT22;49296;48.188;11.566;2023-09-19T07:42:10;18.39;73.43
63202;DHT22;49296;48.188;11.566;2023-09-19T07:44:43;18.32;73.96
63202;DHT22;49296;48.188;11.566;2023-09-19T07:47:13;18.24;74.07
63202;DHT22;49296;48.188;11.566;2023-09-19T07:49:40;18.15;74.35
63202;DHT22;49296;48.188;11.566;2023-09-19T07:52:07;18.26;74.26
63202;DHT22;49296;48.188;11.566;2023-09-19T07:54:34;18.30;74.49
63202;DHT22;49296;48.188;11.566;2023-09-19T07:57:02;18.42;74.18
63202;DHT22;49296;48.188;11.566;2023-09-19T07:59:29;18.44;73.98
63202;DHT22;49296;48.188;11.566;2023-09-19T08:01:56;18.61;74.02
63202;DHT22;49296;48.188;11.566;2023-09-19T08:04:24;18.65;73.97
63202;DHT22;49296;48.188;11.566;2023-09-19T08:06:52;18.78;73.50
63202;DHT22;49296;48.188;11.566;2023-09-19T08:09:18;18.77;73.55
63202;DHT22;49296;48.188;11.566;2023-09-19T08:11:46;18.80;73.76
63202;DHT22;49296;48.188;11.566;2023-09-19T08:14:13;18.85;73.10
63202;DHT22;49296;48.188;11.566;2023-09-19T08:16:41;18.83;73.66
63202;DHT22;49296;48.188;11.566;2023-09-19T08:19:09;18.87;73.47
63202;DHT22;49296;48.188;11.566;2023-09-19T08:21:38;18.98;73.12
63202;DHT22;49296;48.188;11.566;2023-09-19T08:24:05;18.84;73.16
63202;DHT22;49296;48.188;11.566;2023-09-19T08:26:31;18.80;72.76
63202;DHT22;49296;48.188;11.566;2023-09-19T08:28:58;18.87;72.73
63202;DHT22;49296;48.188;11.566;2023-09-19T08:31:30;18.87;72.58
63202;DHT22;49296;48.188;11.566;2023-09-19T08:33:56;18.91;72.42
63202;DHT22;49296;48.188;11.566;2023-09-19T08:36:23;18.98;72.61
63202;DHT22;49296;48.188;11.566;2023-09-19T08:38:51;18.98;72.28
63202;DHT22;49296;48.188;11.566;2023-09-19T08:41:18;19.08;71.89
63202;DHT22;49296;48.188;11.566;2023-09-19T08:43:45;19.12;71.84
63202;DHT22;49296;48.188;11.566;2023-09-19T08:46:15;19.15;71.90
63202;DHT22;49296;48.188;11.566;2023-09-19T08:49:04;19.25;71.81
63202;DHT22;49296;48.188;11.566;2023-09-19T08:51:43;19.22;70.90
63202;DHT22;49296;48.188;11.566;2023-09-19T08:54:22;19.37;71.62
63202;DHT22;49296;48.188;11.566;2023-09-19T08:56:53;19.49;70.39
63202;DHT22;49296;48.188;11.566;2023-09-19T08:59:21;19.68;70.48
63202;DHT22;49296;48.188;11.566;2023-09-19T09:01:49;19.85;70.06
63202;DHT22;49296;48.188;11.566;2023-09-19T09:04:19;19.94;69.99
63202;DHT22;49296;48.188;11.566;2023-09-19T09:06:49;19.94;70.20
63202;DHT22;49296;48.188;11.566;2023-09-19T09:09:20;19.88;69.74
63202;DHT22;49296;48.188;11.566;2023-09-19T09:11:48;19.77;69.37
63202;DHT22;49296;48.188;11.566;2023-09-19T09:14:15;19.91;69.16
63202;DHT22;49296;48.188;11.566;2023-09-19T09:16:43;19.99;69.20
63202;DHT22;49296;48.188;11.566;2023-09-19T09:19:10;20.16;68.61
63202;DHT22;49296;48.188;11.566;2023-09-19T09:21:38;20.37;68.52
63202;DHT22;49296;48.188;11.566;2023-09-19T09:24:29;20.47;67.10
63202;DHT22;49296;48.188;11.566;2023-09-19T09:26:59;20.47;66.78
63202;DHT22;49296;48.188;11.566;2023-09-19T09:29:44;20.39;65.37
63202;DHT22;49296;48.188;11.566;2023-09-19T09:32:22;20.29;65.67
63202;DHT22;49296;48.188;11.566;2023-09-19T09:35:11;20.13;66.55
63202;DHT22;49296;48.188;11.566;2023-09-19T09:37:59;20.04;67.10
63202;DHT22;49296;48.188;11.566;2023-09-19T09:40:45;20.04;67.03
63202;DHT22;49296;48.188;11.566;2023-09-19T09:43:28;20.09;67.23
63202;DHT22;49296;48.188;11.566;2023-09-19T09:46:09;20.25;66.84
63202;DHT22;49296;48.188;11.566;2023-09-19T09:49:00;20.36;66.14
63202;DHT22;49296;48.188;11.566;2023-09-19T09:51:49;20.54;65.63
63202;DHT22;49296;48.188;11.566;2023-09-19T09:54:25;20.75;65.90
63202;DHT22;49296;48.188;11.566;2023-09-19T09:57:01;20.90;65.53
63202;DHT22;49296;48.188;11.566;2023-09-19T09:59:46;20.92;64.46
63202;DHT22;49296;48.188;11.566;2023-09-19T10:02:13;20.85;64.10
63202;DHT22;49296;48.188;11.566;2023-09-19T10:04:46;20.91;64.20
63202;DHT22;49296;48.188;11.566;2023-09-19T10:07:28;20.92;64.41
63202;DHT22;49296;48.188;11.566;2023-09-19T10:09:58;21.05;64.28
63202;DHT22;49296;48.188;11.566;2023-09-19T10:12:38;21.02;63.37
63202;DHT22;49296;48.188;11.566;2023-09-19T10:15:10;20.98;62.68
63202;DHT22;49296;48.188;11.566;2023-09-19T10:17:40;21.02;62.19
63202;DHT22;49296;48.188;11.566;2023-09-19T10:20:12;21.23;62.47
63202;DHT22;49296;48.188;11.566;2023-09-19T10:22:53;21.43;62.05
63202;DHT22;49296;48.188;11.566;2023-09-19T10:25:27;21.19;62.03
63202;DHT22;49296;48.188;11.566;2023-09-19T10:27:57;21.18;62.07
63202;DHT22;49296;48.188;11.566;2023-09-19T10:30:27;21.25;61.80
63202;DHT22;49296;48.188;11.566;2023-09-19T10:33:00;21.19;61.73
63202;DHT22;49296;48.188;11.566;2023-09-19T10:35:27;21.29;61.45
63202;DHT22;49296;48.188;11.566;2023-09-19T10:37:57;21.19;61.61
63202;DHT22;49296;48.188;11.566;2023-09-19T10:40:27;21.20;62.35
63202;DHT22;49296;48.188;11.566;2023-09-19T10:43:03;21.16;62.15
63202;DHT22;49296;48.188;11.566;2023-09-19T10:45:31;21.20;62.89
63202;DHT22;49296;48.188;11.566;2023-09-19T10:47:58;21.26;61.86
63202;DHT22;49296;48.188;11.566;2023-09-19T10:50:26;21.09;61.74
63202;DHT22;49296;48.188;11.566;2023-09-19T10:52:59;21.06;61.43
63202;DHT22;49296;48.188;11.566;2023-09-19T10:55:31;21.18;62.02
63202;DHT22;49296;48.188;11.566;2023-09-19T10:57:58;21.39;62.74
63202;DHT22;49296;48.188;11.566;2023-09-19T11:00:54;21.53;63.23
63202;DHT22;49296;48.188;11.566;2023-09-19T11:03:21;21.71;62.48
63202;DHT22;49296;48.188;11.566;2023-09-19T11:06:09;21.74;62.15
63202;DHT22;49296;48.188;11.566;2023-09-19T11:08:55;21.70;62.46
63202;DHT22;49296;48.188;11.566;2023-09-19T11:11:43;21.91;59.42
63202;DHT22;49296;48.188;11.566;2023-09-19T11:14:15;21.94;59.84
63202;DHT22;49296;48.188;11.566;2023-09-19T11:20:21;22.08;57.79
63202;DHT22;49296;48.188;11.566;2023-09-19T11:23:17;22.19;58.25
63202;DHT22;49296;48.188;11.566;2023-09-19T11:25:43;22.24;57.98
63202;DHT22;49296;48.188;11.566;2023-09-19T11:28:33;22.37;57.38
63202;DHT22;49296;48.188;11.566;2023-09-19T11:40:12;22.40;55.99
63202;DHT22;49296;48.188;11.566;2023-09-19T11:42:43;22.47;55.50
63202;DHT22;49296;48.188;11.566;2023-09-19T11:48:23;22.71;55.50
63202;DHT22;49296;48.188;11.566;2023-09-19T11:50:51;22.79;55.15
63202;DHT22;49296;48.188;11.566;2023-09-19T11:53:19;22.71;54.26
63202;DHT22;49296;48.188;11.566;2023-09-19T11:55:48;22.60;54.51
63202;DHT22;49296;48.188;11.566;2023-09-19T11:58:15;22.28;54.58
63202;DHT22;49296;48.188;11.566;2023-09-19T12:00:45;22.16;55.29
63202;DHT22;49296;48.188;11.566;2023-09-19T12:03:12;21.96;56.32
63202;DHT22;49296;48.188;11.566;2023-09-19T12:05:39;22.01;56.75
63202;DHT22;49296;48.188;11.566;2023-09-19T12:08:07;22.04;57.58
63202;DHT22;49296;48.188;11.566;2023-09-19T12:10:43;22.16;57.86
63202;DHT22;49296;48.188;11.566;2023-09-19T12:13:16;22.23;57.75
63202;DHT22;49296;48.188;11.566;2023-09-19T12:15:43;22.53;57.13
63202;DHT22;49296;48.188;11.566;2023-09-19T12:18:25;22.65;56.67
63202;DHT22;49296;48.188;11.566;2023-09-19T12:20:52;22.69;56.72
63202;DHT22;49296;48.188;11.566;2023-09-19T12:23:20;22.37;57.09
63202;DHT22;49296;48.188;11.566;2023-09-19T12:25:46;22.54;57.11
63202;DHT22;49296;48.188;11.566;2023-09-19T12:28:19;22.58;58.07
63202;DHT22;49296;48.188;11.566;2023-09-19T12:30:47;22.63;57.72
63202;DHT22;49296;48.188;11.566;2023-09-19T12:33:18;22.40;58.05
63202;DHT22;49296;48.188;11.566;2023-09-19T12:35:46;22.90;58.62
63202;DHT22;49296;48.188;11.566;2023-09-19T12:38:23;22.88;56.62
63202;DHT22;49296;48.188;11.566;2023-09-19T12:40:50;22.94;57.36
63202;DHT22;49296;48.188;11.566;2023-09-19T12:43:19;22.53;59.36
63202;DHT22;49296;48.188;11.566;2023-09-19T12:45:47;22.32;60.04
63202;DHT22;49296;48.188;11.566;2023-09-19T12:48:24;22.24;59.97
63202;DHT22;49296;48.188;11.566;2023-09-19T12:51:04;21.81;60.79
63202;DHT22;49296;48.188;11.566;2023-09-19T12:53:36;21.82;61.52
63202;DHT22;49296;48.188;11.566;2023-09-19T12:56:06;21.54;62.35
63202;DHT22;49296;48.188;11.566;2023-09-19T12:58:48;21.26;63.06
63202;DHT22;49296;48.188;11.566;2023-09-19T13:01:15;21.20;63.77
63202;DHT22;49296;48.188;11.566;2023-09-19T13:03:41;21.09;63.93
63202;DHT22;49296;48.188;11.566;2023-09-19T13:06:08;20.91;64.47
63202;DHT22;49296;48.188;11.566;2023-09-19T13:08:37;21.70;62.31
63202;DHT22;49296;48.188;11.566;2023-09-19T13:11:11;21.81;62.11
63202;DHT22;49296;48.188;11.566;2023-09-19T13:13:42;22.39;60.55
63202;DHT22;49296;48.188;11.566;2023-09-19T13:16:10;22.88;60.46
63202;DHT22;49296;48.188;11.566;2023-09-19T13:18:43;23.34;59.01
63202;DHT22;49296;48.188;11.566;2023-09-19T13:21:12;23.70;57.67
63202;DHT22;49296;48.188;11.566;2023-09-19T13:23:42;23.86;57.71
63202;DHT22;49296;48.188;11.566;2023-09-19T13:26:09;23.98;56.59
63202;DHT22;49296;48.188;11.566;2023-09-19T13:28:37;24.08;56.11
63202;DHT22;49296;48.188;11.566;2023-09-19T13:31:05;24.58;55.64
63202;DHT22;49296;48.188;11.566;2023-09-19T13:33:34;24.56;55.05
63202;DHT22;49296;48.188;11.566;2023-09-19T13:36:01;24.44;55.37
63202;DHT22;49296;48.188;11.566;2023-09-19T13:38:27;24.50;54.85
63202;DHT22;49296;48.188;11.566;2023-09-19T13:40:54;24.79;54.37
63202;DHT22;49296;48.188;11.566;2023-09-19T13:43:21;24.65;54.53
63202;DHT22;49296;48.188;11.566;2023-09-19T13:45:50;24.95;54.32
63202;DHT22;49296;48.188;11.566;2023-09-19T13:48:18;25.12;53.75
63202;DHT22;49296;48.188;11.566;2023-09-19T13:50:48;25.29;53.48
63202;DHT22;49296;48.188;11.566;2023-09-19T13:53:14;24.77;54.85
63202;DHT22;49296;48.188;11.566;2023-09-19T13:55:42;23.96;55.07
63202;DHT22;49296;48.188;11.566;2023-09-19T13:58:08;24.37;54.12
63202;DHT22;49296;48.188;11.566;2023-09-19T14:00:37;23.62;56.26
63202;DHT22;49296;48.188;11.566;2023-09-19T14:03:04;23.05;58.02
63202;DHT22;49296;48.188;11.566;2023-09-19T14:05:32;23.12;58.50
63202;DHT22;49296;48.188;11.566;2023-09-19T14:07:59;23.31;58.01
63202;DHT22;49296;48.188;11.566;2023-09-19T14:10:26;23.36;57.82
63202;DHT22;49296;48.188;11.566;2023-09-19T14:12:55;23.19;57.85
63202;DHT22;49296;48.188;11.566;2023-09-19T14:15:22;23.67;57.15
63202;DHT22;49296;48.188;11.566;2023-09-19T14:17:55;23.84;57.07
63202;DHT22;49296;48.188;11.566;2023-09-19T14:20:22;23.85;56.97
63202;DHT22;49296;48.188;11.566;2023-09-19T14:22:50;24.17;55.39
63202;DHT22;49296;48.188;11.566;2023-09-19T14:25:17;23.36;56.63
63202;DHT22;49296;48.188;11.566;2023-09-19T14:27:43;23.99;55.20
63202;DHT22;49296;48.188;11.566;2023-09-19T14:30:11;23.85;54.78
63202;DHT22;49296;48.188;11.566;2023-09-19T14:32:37;23.64;55.74
63202;DHT22;49296;48.188;11.566;2023-09-19T14:35:05;23.99;55.11
63202;DHT22;49296;48.188;11.566;2023-09-19T14:37:32;24.53;53.14
63202;DHT22;49296;48.188;11.566;2023-09-19T14:40:00;24.77;52.89
63202;DHT22;49296;48.188;11.566;2023-09-19T14:42:34;25.12;52.60
63202;DHT22;49296;48.188;11.566;2023-09-19T14:45:04;25.09;52.38
63202;DHT22;49296;48.188;11.566;2023-09-19T14:47:31;25.26;52.65
63202;DHT22;49296;48.188;11.566;2023-09-19T14:49:59;25.84;51.55
63202;DHT22;49296;48.188;11.566;2023-09-19T14:52:26;25.72;50.69
63202;DHT22;49296;48.188;11.566;2023-09-19T14:54:53;25.70;49.90
63202;DHT22;49296;48.188;11.566;2023-09-19T14:57:22;25.19;51.88
63202;DHT22;49296;48.188;11.566;2023-09-19T14:59:50;25.16;52.60
63202;DHT22;49296;48.188;11.566;2023-09-19T15:02:17;24.57;53.58
63202;DHT22;49296;48.188;11.566;2023-09-19T15:04:44;25.13;52.66
63202;DHT22;49296;48.188;11.566;2023-09-19T15:07:12;25.20;51.98
63202;DHT22;49296;48.188;11.566;2023-09-19T15:09:39;25.37;51.87
63202;DHT22;49296;48.188;11.566;2023-09-19T15:12:06;25.43;51.82
63202;DHT22;49296;48.188;11.566;2023-09-19T15:14:34;25.67;51.80
63202;DHT22;49296;48.188;11.566;2023-09-19T15:17:00;25.60;50.88
63202;DHT22;49296;48.188;11.566;2023-09-19T15:19:30;25.19;52.44
63202;DHT22;49296;48.188;11.566;2023-09-19T15:21:56;25.20;52.03
63202;DHT22;49296;48.188;11.566;2023-09-19T15:24:24;24.77;52.69
63202;DHT22;49296;48.188;11.566;2023-09-19T15:26:52;24.56;53.53
63202;DHT22;49296;48.188;11.566;2023-09-19T15:29:21;24.43;53.80
63202;DHT22;49296;48.188;11.566;2023-09-19T15:31:49;24.54;53.16
63202;DHT22;49296;48.188;11.566;2023-09-19T15:34:16;24.53;53.58
63202;DHT22;49296;48.188;11.566;2023-09-19T15:36:43;24.96;52.84
63202;DHT22;49296;48.188;11.566;2023-09-19T15:39:11;24.75;52.73
63202;DHT22;49296;48.188;11.566;2023-09-19T15:41:41;24.85;52.03
63202;DHT22;49296;48.188;11.566;2023-09-19T15:44:13;24.79;52.33
63202;DHT22;49296;48.188;11.566;2023-09-19T15:46:41;24.67;52.33
63202;DHT22;49296;48.188;11.566;2023-09-19T15:49:09;24.47;52.83
63202;DHT22;49296;48.188;11.566;2023-09-19T15:51:36;24.02;53.85